Главная страница
METAR-TAF:

METAR-TAF

Аэропорты :

Irene, Южно-Африканская Республика

широта: 25-54-36S, долгота: 28-12-40E, высота над уровнем моря: 1523 м

Текущие метеонаблюдения

Эта сводка был подготовлена 5 часа и 59 минут назад, в 07:54 UTC
Ветер 7 Узел от северный
Температура 29°C
Влажность 33%
Давление 1020 hPa
Видимость 10 км и более
Нет облачности ниже 1500 м, и нет кучево-дождевой облачности

METAR: FAIR 190754Z 35007KT CAVOK 29/11 Q1020

Время: 15:53 (13:53 UTC)


TAF: отсутствует

Метеонаблюдения и прогнозы для более 4000 аэропортов (сводки METAR и TAF).

Имеющиеся станции представлены на карте желтыми и красными точками.

Чтобы увидеть название станции, наведите на нее мышь.

Затем щелкните, чтобы увидеть метеонаблюдения и метеопрогнозы.

Управление картой: чтобы увеличить масштаб, щелкните зеленые кнопки с черным крестиком; чтобы уменьшить масштаб, щелкните зеленую кнопку с тире; для просмотра соседних карт щелкайте зеленые стрелки.


METAR-TAF: